DBMPY EDLW-EDDR
Flight info
| Callsign | DBMPY |
|---|---|
| Flight time | 0h 50m |
| Altitude | 22000 |
| Route | BAMSU2U/24 BAMSU M170 NVO Q760 TOMPI Z729 IXWIB |
| Aircraft | C750/M-SBDE3FGHRWXY/S |
Departure
| Time | 2026-05-07 11:28 |
|---|---|
| Airport | Dortmund Airport (EDLW) |
Arrival
| Time | 2026-05-07 12:19 |
|---|---|
| Airport | Saarbrücken Airport (EDDR) |
| Time | Latitude | Longitude | Altitude | Speed | Heading |
|---|---|---|---|---|---|
| 2026-05-07 11:11 | 51.51201 | 7.60401 | 459 ft | 0 kts | 196° |
| 2026-05-07 11:22 | 51.51202 | 7.60401 | 459 ft | 0 kts | 196° |
| 2026-05-07 11:22 | 51.51192 | 7.60373 | 459 ft | 9 kts | 256° |
| 2026-05-07 11:22 | 51.51164 | 7.60238 | 457 ft | 11 kts | 240° |
| 2026-05-07 11:22 | 51.51167 | 7.60160 | 455 ft | 9 kts | 333° |
| 2026-05-07 11:23 | 51.51225 | 7.60243 | 446 ft | 16 kts | 61° |
| 2026-05-07 11:23 | 51.51287 | 7.60419 | 442 ft | 19 kts | 61° |
| 2026-05-07 11:23 | 51.51353 | 7.60608 | 438 ft | 19 kts | 60° |
| 2026-05-07 11:23 | 51.51422 | 7.60805 | 431 ft | 22 kts | 62° |
| 2026-05-07 11:24 | 51.51485 | 7.60980 | 425 ft | 14 kts | 59° |
| 2026-05-07 11:24 | 51.51533 | 7.61057 | 429 ft | 9 kts | 0° |
| 2026-05-07 11:24 | 51.51597 | 7.61095 | 424 ft | 10 kts | 57° |
| 2026-05-07 11:24 | 51.51630 | 7.61191 | 425 ft | 10 kts | 60° |
| 2026-05-07 11:25 | 51.51670 | 7.61302 | 422 ft | 12 kts | 61° |
| 2026-05-07 11:25 | 51.51718 | 7.61440 | 416 ft | 16 kts | 60° |
| 2026-05-07 11:25 | 51.51780 | 7.61613 | 413 ft | 20 kts | 60° |
| 2026-05-07 11:25 | 51.51853 | 7.61825 | 412 ft | 21 kts | 61° |
| 2026-05-07 11:26 | 51.51927 | 7.62034 | 410 ft | 22 kts | 60° |
| 2026-05-07 11:26 | 51.52000 | 7.62243 | 408 ft | 21 kts | 61° |
| 2026-05-07 11:26 | 51.52062 | 7.62395 | 406 ft | 10 kts | 31° |
| 2026-05-07 11:26 | 51.52119 | 7.62373 | 404 ft | 8 kts | 330° |
| 2026-05-07 11:27 | 51.52170 | 7.62324 | 407 ft | 9 kts | 329° |
| 2026-05-07 11:27 | 51.52195 | 7.62256 | 407 ft | 7 kts | 264° |
| 2026-05-07 11:27 | 51.52187 | 7.62230 | 403 ft | 4 kts | 240° |
| 2026-05-07 11:27 | 51.51985 | 7.61651 | 411 ft | 118 kts | 241° |
| 2026-05-07 11:28 | 51.51517 | 7.60276 | 770 ft | 149 kts | 244° |
| 2026-05-07 11:28 | 51.51000 | 7.58733 | 1316 ft | 165 kts | 243° |
| 2026-05-07 11:28 | 51.50405 | 7.57035 | 1862 ft | 188 kts | 243° |
| 2026-05-07 11:28 | 51.49719 | 7.55103 | 2416 ft | 216 kts | 242° |
| 2026-05-07 11:29 | 51.48922 | 7.52887 | 2995 ft | 242 kts | 242° |
| 2026-05-07 11:29 | 51.48040 | 7.50450 | 3529 ft | 262 kts | 242° |
| 2026-05-07 11:29 | 51.46993 | 7.48005 | 4468 ft | 266 kts | 233° |
| 2026-05-07 11:29 | 51.45872 | 7.45630 | 5560 ft | 269 kts | 236° |
| 2026-05-07 11:30 | 51.44759 | 7.43183 | 6609 ft | 274 kts | 236° |
| 2026-05-07 11:30 | 51.43614 | 7.40722 | 7674 ft | 278 kts | 235° |
| 2026-05-07 11:30 | 51.42442 | 7.38239 | 8836 ft | 280 kts | 234° |
| 2026-05-07 11:30 | 51.41261 | 7.35730 | 9915 ft | 285 kts | 234° |
| 2026-05-07 11:31 | 51.40000 | 7.33230 | 10499 ft | 299 kts | 225° |
| 2026-05-07 11:31 | 51.38091 | 7.31563 | 10615 ft | 332 kts | 195° |
| 2026-05-07 11:31 | 51.35728 | 7.31219 | 10833 ft | 347 kts | 181° |
| 2026-05-07 11:31 | 51.33271 | 7.31330 | 11363 ft | 356 kts | 178° |
| 2026-05-07 11:32 | 51.28298 | 7.31269 | 12935 ft | 361 kts | 184° |
| 2026-05-07 11:32 | 51.25769 | 7.31082 | 13652 ft | 366 kts | 183° |
| 2026-05-07 11:32 | 51.23209 | 7.31018 | 14353 ft | 370 kts | 182° |
| 2026-05-07 11:33 | 51.20643 | 7.30600 | 14850 ft | 373 kts | 197° |
| 2026-05-07 11:33 | 51.18362 | 7.28814 | 15580 ft | 370 kts | 216° |
| 2026-05-07 11:33 | 51.16543 | 7.25930 | 16237 ft | 371 kts | 233° |
| 2026-05-07 11:33 | 51.15003 | 7.22631 | 16991 ft | 372 kts | 235° |
| 2026-05-07 11:34 | 51.13450 | 7.19248 | 17761 ft | 375 kts | 234° |
| 2026-05-07 11:34 | 51.11882 | 7.15894 | 18445 ft | 380 kts | 233° |
| 2026-05-07 11:34 | 51.10299 | 7.12543 | 19019 ft | 385 kts | 234° |
| 2026-05-07 11:34 | 51.08696 | 7.09130 | 19799 ft | 385 kts | 234° |
| 2026-05-07 11:35 | 51.07093 | 7.05701 | 20464 ft | 390 kts | 234° |
| 2026-05-07 11:35 | 51.05461 | 7.02226 | 21098 ft | 394 kts | 233° |
| 2026-05-07 11:35 | 51.03810 | 6.98728 | 21779 ft | 397 kts | 234° |
| 2026-05-07 11:35 | 51.02133 | 6.95172 | 22044 ft | 411 kts | 233° |
| 2026-05-07 11:36 | 51.00382 | 6.91458 | 22048 ft | 429 kts | 233° |
| 2026-05-07 11:36 | 50.98557 | 6.87598 | 22055 ft | 445 kts | 233° |
| 2026-05-07 11:36 | 50.96648 | 6.83800 | 22034 ft | 440 kts | 229° |
| 2026-05-07 11:36 | 50.94391 | 6.80449 | 22039 ft | 447 kts | 221° |
| 2026-05-07 11:37 | 50.92027 | 6.77201 | 22047 ft | 448 kts | 221° |
| 2026-05-07 11:37 | 50.89636 | 6.74015 | 22035 ft | 451 kts | 218° |
| 2026-05-07 11:37 | 50.86964 | 6.71355 | 22033 ft | 454 kts | 209° |
| 2026-05-07 11:37 | 50.84056 | 6.69389 | 22038 ft | 454 kts | 199° |
| 2026-05-07 11:38 | 50.80979 | 6.68194 | 22036 ft | 455 kts | 191° |
| 2026-05-07 11:38 | 50.77804 | 6.67845 | 22044 ft | 459 kts | 181° |
| 2026-05-07 11:38 | 50.74624 | 6.68246 | 22035 ft | 461 kts | 172° |
| 2026-05-07 11:38 | 50.71553 | 6.69451 | 22041 ft | 461 kts | 163° |
| 2026-05-07 11:39 | 50.68520 | 6.71116 | 22047 ft | 462 kts | 162° |
| 2026-05-07 11:39 | 50.65474 | 6.72770 | 22053 ft | 462 kts | 162° |
| 2026-05-07 11:39 | 50.62424 | 6.74392 | 22053 ft | 463 kts | 163° |
| 2026-05-07 11:39 | 50.59313 | 6.75647 | 22028 ft | 460 kts | 171° |
| 2026-05-07 11:40 | 50.56145 | 6.76403 | 22036 ft | 461 kts | 172° |
| 2026-05-07 11:40 | 50.52981 | 6.77195 | 22041 ft | 461 kts | 172° |
| 2026-05-07 11:40 | 50.49815 | 6.78017 | 22042 ft | 461 kts | 172° |
| 2026-05-07 11:40 | 50.46649 | 6.78810 | 22039 ft | 461 kts | 172° |
| 2026-05-07 11:41 | 50.43480 | 6.79577 | 22034 ft | 461 kts | 172° |
| 2026-05-07 11:41 | 50.40312 | 6.80355 | 22030 ft | 461 kts | 173° |
| 2026-05-07 11:41 | 50.37137 | 6.81152 | 22033 ft | 461 kts | 172° |
| 2026-05-07 11:41 | 50.33970 | 6.81940 | 22037 ft | 461 kts | 173° |
| 2026-05-07 11:42 | 50.30798 | 6.82717 | 22037 ft | 461 kts | 172° |
| 2026-05-07 11:42 | 50.27632 | 6.83492 | 22041 ft | 461 kts | 172° |
| 2026-05-07 11:42 | 50.24466 | 6.84275 | 22043 ft | 461 kts | 172° |
| 2026-05-07 11:42 | 50.21294 | 6.85057 | 22038 ft | 461 kts | 172° |
| 2026-05-07 11:43 | 50.18120 | 6.85836 | 22039 ft | 461 kts | 172° |
| 2026-05-07 11:43 | 50.14993 | 6.86603 | 22038 ft | 461 kts | 172° |
| 2026-05-07 11:43 | 50.11828 | 6.87381 | 22038 ft | 461 kts | 172° |
| 2026-05-07 11:43 | 50.08649 | 6.88161 | 22036 ft | 462 kts | 172° |
| 2026-05-07 11:44 | 50.05469 | 6.88941 | 22019 ft | 462 kts | 172° |
| 2026-05-07 11:44 | 50.02287 | 6.89724 | 22019 ft | 462 kts | 172° |
| 2026-05-07 11:44 | 49.99109 | 6.90492 | 22017 ft | 462 kts | 173° |
| 2026-05-07 11:44 | 49.95907 | 6.91064 | 22022 ft | 463 kts | 174° |
| 2026-05-07 11:45 | 49.92702 | 6.91619 | 22023 ft | 464 kts | 174° |
| 2026-05-07 11:45 | 49.89502 | 6.92196 | 22033 ft | 462 kts | 174° |
| 2026-05-07 11:45 | 49.86309 | 6.92779 | 22033 ft | 463 kts | 174° |
| 2026-05-07 11:45 | 49.83109 | 6.93345 | 22030 ft | 462 kts | 174° |
| 2026-05-07 11:46 | 49.79902 | 6.93906 | 22027 ft | 463 kts | 174° |
| 2026-05-07 11:46 | 49.76697 | 6.94474 | 22028 ft | 463 kts | 174° |
| 2026-05-07 11:46 | 49.73498 | 6.95045 | 22006 ft | 464 kts | 174° |
| 2026-05-07 11:46 | 49.70294 | 6.95668 | 21437 ft | 460 kts | 172° |
| 2026-05-07 11:47 | 49.67179 | 6.96691 | 20844 ft | 457 kts | 168° |
| 2026-05-07 11:47 | 49.64089 | 6.97722 | 20248 ft | 447 kts | 169° |
| 2026-05-07 11:47 | 49.61152 | 6.98659 | 19675 ft | 415 kts | 169° |
| 2026-05-07 11:47 | 49.58405 | 6.99537 | 19168 ft | 394 kts | 169° |
| 2026-05-07 11:48 | 49.55747 | 7.00405 | 18663 ft | 389 kts | 169° |
| 2026-05-07 11:48 | 49.53100 | 7.01270 | 18134 ft | 388 kts | 169° |
| 2026-05-07 11:48 | 49.50470 | 7.02122 | 17618 ft | 385 kts | 169° |
| 2026-05-07 11:48 | 49.47850 | 7.02965 | 17112 ft | 383 kts | 169° |
| 2026-05-07 11:49 | 49.45286 | 7.03788 | 16617 ft | 381 kts | 169° |
| 2026-05-07 11:49 | 49.42703 | 7.04622 | 16116 ft | 378 kts | 169° |
| 2026-05-07 11:49 | 49.40210 | 7.05874 | 15571 ft | 379 kts | 154° |
| 2026-05-07 11:49 | 49.38108 | 7.08272 | 15094 ft | 377 kts | 136° |
| 2026-05-07 11:50 | 49.36490 | 7.11416 | 14633 ft | 375 kts | 126° |
| 2026-05-07 11:50 | 49.35013 | 7.14588 | 14158 ft | 354 kts | 125° |
| 2026-05-07 11:50 | 49.33612 | 7.17573 | 13678 ft | 336 kts | 126° |
| 2026-05-07 11:50 | 49.32267 | 7.20386 | 13229 ft | 319 kts | 126° |
| 2026-05-07 11:51 | 49.30988 | 7.23063 | 12815 ft | 304 kts | 126° |
| 2026-05-07 11:51 | 49.29786 | 7.25596 | 12427 ft | 280 kts | 126° |
| 2026-05-07 11:51 | 49.28693 | 7.27898 | 12074 ft | 259 kts | 126° |
| 2026-05-07 11:51 | 49.27639 | 7.30106 | 11728 ft | 254 kts | 127° |
| 2026-05-07 11:52 | 49.26604 | 7.32272 | 11403 ft | 249 kts | 127° |
| 2026-05-07 11:52 | 49.25591 | 7.34396 | 11085 ft | 245 kts | 127° |
| 2026-05-07 11:52 | 49.24591 | 7.36490 | 10765 ft | 242 kts | 127° |
| 2026-05-07 11:52 | 49.23600 | 7.38561 | 10447 ft | 240 kts | 127° |
| 2026-05-07 11:53 | 49.22613 | 7.40624 | 10132 ft | 239 kts | 127° |
| 2026-05-07 11:53 | 49.21820 | 7.42793 | 9856 ft | 237 kts | 105° |
| 2026-05-07 11:53 | 49.21753 | 7.45248 | 9930 ft | 230 kts | 87° |
| 2026-05-07 11:53 | 49.21840 | 7.47735 | 10060 ft | 238 kts | 87° |
| 2026-05-07 11:54 | 49.21922 | 7.50288 | 10046 ft | 241 kts | 87° |
| 2026-05-07 11:54 | 49.21999 | 7.52848 | 10047 ft | 241 kts | 87° |
| 2026-05-07 11:54 | 49.22360 | 7.55324 | 9961 ft | 241 kts | 60° |
| 2026-05-07 11:54 | 49.23512 | 7.57120 | 10001 ft | 238 kts | 28° |
| 2026-05-07 11:55 | 49.25073 | 7.57739 | 10015 ft | 231 kts | 356° |
| 2026-05-07 11:55 | 49.26580 | 7.57082 | 10020 ft | 221 kts | 326° |
| 2026-05-07 11:55 | 49.27606 | 7.55513 | 10015 ft | 201 kts | 300° |
| 2026-05-07 11:55 | 49.28027 | 7.53576 | 10017 ft | 188 kts | 276° |
| 2026-05-07 11:56 | 49.27881 | 7.51625 | 10016 ft | 185 kts | 252° |
| 2026-05-07 11:56 | 49.27220 | 7.49938 | 10027 ft | 189 kts | 229° |
| 2026-05-07 11:56 | 49.26249 | 7.48586 | 10058 ft | 190 kts | 224° |
| 2026-05-07 11:56 | 49.25271 | 7.47212 | 10051 ft | 192 kts | 225° |
| 2026-05-07 11:57 | 49.24288 | 7.45837 | 10050 ft | 192 kts | 224° |
| 2026-05-07 11:57 | 49.23304 | 7.44473 | 10052 ft | 191 kts | 224° |
| 2026-05-07 11:57 | 49.22540 | 7.42849 | 10020 ft | 188 kts | 249° |
| 2026-05-07 11:57 | 49.22295 | 7.40907 | 10038 ft | 186 kts | 268° |
| 2026-05-07 11:58 | 49.22252 | 7.38921 | 10058 ft | 188 kts | 268° |
| 2026-05-07 11:58 | 49.22391 | 7.36950 | 9971 ft | 191 kts | 295° |
| 2026-05-07 11:58 | 49.23411 | 7.35739 | 9959 ft | 193 kts | 345° |
| 2026-05-07 11:58 | 49.24752 | 7.35786 | 10074 ft | 196 kts | 3° |
| 2026-05-07 11:59 | 49.25660 | 7.35941 | 10069 ft | 200 kts | 3° |
| 2026-05-07 11:59 | 49.27047 | 7.36162 | 10059 ft | 200 kts | 3° |
| 2026-05-07 11:59 | 49.28313 | 7.36987 | 9981 ft | 205 kts | 44° |
| 2026-05-07 11:59 | 49.29030 | 7.38840 | 10065 ft | 203 kts | 63° |
| 2026-05-07 12:00 | 49.29511 | 7.40910 | 10033 ft | 209 kts | 79° |
| 2026-05-07 12:00 | 49.29683 | 7.43119 | 10056 ft | 210 kts | 83° |
| 2026-05-07 12:00 | 49.29835 | 7.45346 | 10059 ft | 210 kts | 83° |
| 2026-05-07 12:00 | 49.29988 | 7.47567 | 10057 ft | 209 kts | 83° |
| 2026-05-07 12:01 | 49.30140 | 7.49785 | 10052 ft | 209 kts | 83° |
| 2026-05-07 12:01 | 49.30292 | 7.51995 | 10039 ft | 208 kts | 83° |
| 2026-05-07 12:01 | 49.30445 | 7.54202 | 10044 ft | 208 kts | 83° |
| 2026-05-07 12:01 | 49.30351 | 7.56395 | 9914 ft | 211 kts | 114° |
| 2026-05-07 12:02 | 49.29334 | 7.57872 | 9825 ft | 201 kts | 165° |
| 2026-05-07 12:02 | 49.27932 | 7.57670 | 9894 ft | 209 kts | 211° |
| 2026-05-07 12:02 | 49.27004 | 7.56047 | 10027 ft | 206 kts | 243° |
| 2026-05-07 12:02 | 49.26373 | 7.54028 | 10199 ft | 211 kts | 246° |
| 2026-05-07 12:03 | 49.25727 | 7.51981 | 10168 ft | 215 kts | 245° |
| 2026-05-07 12:03 | 49.25077 | 7.49950 | 10099 ft | 215 kts | 245° |
| 2026-05-07 12:03 | 49.24425 | 7.47903 | 10049 ft | 212 kts | 245° |
| 2026-05-07 12:03 | 49.23785 | 7.45893 | 10054 ft | 210 kts | 245° |
| 2026-05-07 12:04 | 49.23146 | 7.43886 | 10037 ft | 210 kts | 245° |
| 2026-05-07 12:04 | 49.22543 | 7.41853 | 10027 ft | 210 kts | 252° |
| 2026-05-07 12:04 | 49.22572 | 7.39652 | 10003 ft | 209 kts | 286° |
| 2026-05-07 12:04 | 49.23367 | 7.37808 | 10018 ft | 213 kts | 318° |
| 2026-05-07 12:05 | 49.24726 | 7.36904 | 10025 ft | 219 kts | 351° |
| 2026-05-07 12:05 | 49.26219 | 7.37328 | 10034 ft | 224 kts | 24° |
| 2026-05-07 12:05 | 49.27374 | 7.38975 | 9757 ft | 236 kts | 59° |
| 2026-05-07 12:05 | 49.27770 | 7.41374 | 9492 ft | 232 kts | 85° |
| 2026-05-07 12:06 | 49.27830 | 7.43817 | 9293 ft | 228 kts | 88° |
| 2026-05-07 12:06 | 49.27883 | 7.46236 | 9068 ft | 227 kts | 87° |
| 2026-05-07 12:06 | 49.27961 | 7.48642 | 8825 ft | 226 kts | 86° |
| 2026-05-07 12:06 | 49.28015 | 7.51038 | 8564 ft | 224 kts | 91° |
| 2026-05-07 12:07 | 49.27485 | 7.53245 | 8170 ft | 224 kts | 129° |
| 2026-05-07 12:07 | 49.26266 | 7.54626 | 7843 ft | 217 kts | 162° |
| 2026-05-07 12:07 | 49.24803 | 7.54805 | 7548 ft | 210 kts | 193° |
| 2026-05-07 12:07 | 49.23528 | 7.53841 | 7269 ft | 204 kts | 223° |
| 2026-05-07 12:08 | 49.22759 | 7.52073 | 7010 ft | 201 kts | 252° |
| 2026-05-07 12:08 | 49.22579 | 7.49999 | 6781 ft | 199 kts | 268° |
| 2026-05-07 12:08 | 49.22521 | 7.47888 | 6589 ft | 200 kts | 268° |
| 2026-05-07 12:08 | 49.22453 | 7.45773 | 6370 ft | 199 kts | 268° |
| 2026-05-07 12:09 | 49.22385 | 7.43663 | 6133 ft | 200 kts | 268° |
| 2026-05-07 12:09 | 49.22317 | 7.41533 | 5879 ft | 200 kts | 268° |
| 2026-05-07 12:09 | 49.22499 | 7.39451 | 5537 ft | 201 kts | 292° |
| 2026-05-07 12:09 | 49.23343 | 7.37777 | 5227 ft | 201 kts | 320° |
| 2026-05-07 12:10 | 49.24624 | 7.36944 | 4931 ft | 203 kts | 349° |
| 2026-05-07 12:10 | 49.26005 | 7.37196 | 4733 ft | 202 kts | 19° |
| 2026-05-07 12:10 | 49.27130 | 7.38468 | 4570 ft | 205 kts | 50° |
| 2026-05-07 12:10 | 49.27694 | 7.40465 | 4410 ft | 208 kts | 81° |
| 2026-05-07 12:11 | 49.27778 | 7.42652 | 4323 ft | 206 kts | 87° |
| 2026-05-07 12:11 | 49.27842 | 7.44853 | 4235 ft | 208 kts | 86° |
| 2026-05-07 12:11 | 49.27915 | 7.47073 | 4136 ft | 209 kts | 87° |
| 2026-05-07 12:11 | 49.27986 | 7.49291 | 4046 ft | 208 kts | 87° |
| 2026-05-07 12:12 | 49.27995 | 7.51474 | 4009 ft | 204 kts | 98° |
| 2026-05-07 12:12 | 49.27381 | 7.53422 | 4009 ft | 204 kts | 131° |
| 2026-05-07 12:12 | 49.26227 | 7.54640 | 4017 ft | 203 kts | 162° |
| 2026-05-07 12:12 | 49.24847 | 7.54814 | 4022 ft | 200 kts | 192° |
| 2026-05-07 12:13 | 49.23611 | 7.53943 | 4031 ft | 196 kts | 220° |
| 2026-05-07 12:13 | 49.22816 | 7.52294 | 4039 ft | 192 kts | 249° |
| 2026-05-07 12:13 | 49.22595 | 7.50323 | 4049 ft | 192 kts | 267° |
| 2026-05-07 12:13 | 49.22536 | 7.48254 | 4061 ft | 196 kts | 267° |
| 2026-05-07 12:14 | 49.22464 | 7.46160 | 3957 ft | 199 kts | 267° |
| 2026-05-07 12:14 | 49.22394 | 7.43985 | 3733 ft | 208 kts | 267° |
| 2026-05-07 12:14 | 49.22325 | 7.41784 | 3544 ft | 205 kts | 267° |
| 2026-05-07 12:14 | 49.22261 | 7.39661 | 3537 ft | 197 kts | 268° |
| 2026-05-07 12:15 | 49.22207 | 7.37556 | 3531 ft | 201 kts | 268° |
| 2026-05-07 12:15 | 49.22150 | 7.35409 | 3526 ft | 202 kts | 268° |
| 2026-05-07 12:15 | 49.22094 | 7.33274 | 3494 ft | 199 kts | 268° |
| 2026-05-07 12:15 | 49.22040 | 7.31151 | 3493 ft | 201 kts | 268° |
| 2026-05-07 12:16 | 49.21978 | 7.29004 | 3291 ft | 208 kts | 268° |
| 2026-05-07 12:16 | 49.21914 | 7.26799 | 3002 ft | 206 kts | 268° |
| 2026-05-07 12:16 | 49.21853 | 7.24713 | 2732 ft | 186 kts | 268° |
| 2026-05-07 12:16 | 49.21796 | 7.22809 | 2482 ft | 173 kts | 268° |
| 2026-05-07 12:17 | 49.21743 | 7.21017 | 2247 ft | 165 kts | 268° |
| 2026-05-07 12:17 | 49.21698 | 7.19341 | 2030 ft | 151 kts | 268° |
| 2026-05-07 12:17 | 49.21654 | 7.17840 | 1820 ft | 133 kts | 269° |
| 2026-05-07 12:17 | 49.21611 | 7.16434 | 1642 ft | 131 kts | 268° |
| 2026-05-07 12:18 | 49.21576 | 7.15043 | 1472 ft | 130 kts | 269° |
| 2026-05-07 12:18 | 49.21535 | 7.13688 | 1269 ft | 124 kts | 269° |
| 2026-05-07 12:18 | 49.21498 | 7.12380 | 1124 ft | 124 kts | 270° |
| 2026-05-07 12:18 | 49.21465 | 7.11177 | 1064 ft | 80 kts | 267° |
| 2026-05-07 12:19 | 49.21449 | 7.10569 | 1053 ft | 44 kts | 268° |
| 2026-05-07 12:19 | 49.21437 | 7.10231 | 1049 ft | 29 kts | 267° |
| 2026-05-07 12:19 | 49.21425 | 7.09937 | 1048 ft | 25 kts | 268° |
| 2026-05-07 12:19 | 49.21447 | 7.09786 | 1047 ft | 12 kts | 336° |
| 2026-05-07 12:20 | 49.21506 | 7.09826 | 1047 ft | 9 kts | 56° |
| 2026-05-07 12:20 | 49.21533 | 7.09907 | 1047 ft | 8 kts | 63° |
| 2026-05-07 12:20 | 49.21563 | 7.10003 | 1048 ft | 14 kts | 73° |
| 2026-05-07 12:20 | 49.21582 | 7.10174 | 1050 ft | 17 kts | 88° |
| 2026-05-07 12:21 | 49.21588 | 7.10342 | 1052 ft | 15 kts | 87° |
| 2026-05-07 12:21 | 49.21592 | 7.10487 | 1054 ft | 13 kts | 88° |
| 2026-05-07 12:21 | 49.21596 | 7.10609 | 1056 ft | 10 kts | 88° |
| 2026-05-07 12:21 | 49.21609 | 7.10666 | 1056 ft | 4 kts | 36° |
| 2026-05-07 12:22 | 49.21654 | 7.10676 | 1057 ft | 7 kts | 359° |
| 2026-05-07 12:22 | 49.21698 | 7.10693 | 1057 ft | 4 kts | 47° |
| 2026-05-07 12:22 | 49.21711 | 7.10748 | 1058 ft | 7 kts | 84° |
| 2026-05-07 12:22 | 49.21712 | 7.10811 | 1058 ft | 5 kts | 87° |
| 2026-05-07 12:23 | 49.21704 | 7.10850 | 1059 ft | 3 kts | 168° |
| 2026-05-07 12:23 | 49.21691 | 7.10851 | 1059 ft | 0 kts | 173° |